sensor_id;sensor_type;location;lat;lon;timestamp;P1;durP1;ratioP1;P2;durP2;ratioP2
5077;SDS011;2557;51.390;7.494;2023-10-13T00:01:33;14.67;;;12.03;;
5077;SDS011;2557;51.390;7.494;2023-10-13T00:03:59;15.90;;;12.67;;
5077;SDS011;2557;51.390;7.494;2023-10-13T00:06:27;14.30;;;12.80;;
5077;SDS011;2557;51.390;7.494;2023-10-13T00:08:52;15.80;;;12.00;;
5077;SDS011;2557;51.390;7.494;2023-10-13T00:11:20;13.73;;;11.33;;
5077;SDS011;2557;51.390;7.494;2023-10-13T00:13:46;12.30;;;11.00;;
5077;SDS011;2557;51.390;7.494;2023-10-13T00:16:18;14.77;;;11.97;;
5077;SDS011;2557;51.390;7.494;2023-10-13T00:18:50;12.50;;;10.50;;
5077;SDS011;2557;51.390;7.494;2023-10-13T00:21:19;14.73;;;11.20;;
5077;SDS011;2557;51.390;7.494;2023-10-13T00:23:58;14.17;;;10.37;;
5077;SDS011;2557;51.390;7.494;2023-10-13T00:26:31;12.30;;;9.90;;
5077;SDS011;2557;51.390;7.494;2023-10-13T00:29:01;14.40;;;10.30;;
5077;SDS011;2557;51.390;7.494;2023-10-13T00:31:43;16.57;;;10.87;;
5077;SDS011;2557;51.390;7.494;2023-10-13T00:34:13;11.33;;;9.50;;
5077;SDS011;2557;51.390;7.494;2023-10-13T00:36:52;9.40;;;8.50;;
5077;SDS011;2557;51.390;7.494;2023-10-13T00:39:37;13.43;;;9.20;;
5077;SDS011;2557;51.390;7.494;2023-10-13T00:42:10;14.33;;;8.57;;
5077;SDS011;2557;51.390;7.494;2023-10-13T00:44:43;10.43;;;9.00;;
5077;SDS011;2557;51.390;7.494;2023-10-13T00:47:13;11.60;;;9.13;;
5077;SDS011;2557;51.390;7.494;2023-10-13T00:49:44;15.80;;;8.90;;
5077;SDS011;2557;51.390;7.494;2023-10-13T00:52:13;9.40;;;8.17;;
5077;SDS011;2557;51.390;7.494;2023-10-13T00:54:40;9.27;;;8.27;;
5077;SDS011;2557;51.390;7.494;2023-10-13T00:57:11;23.70;;;8.27;;
5077;SDS011;2557;51.390;7.494;2023-10-13T00:59:51;13.77;;;8.60;;
5077;SDS011;2557;51.390;7.494;2023-10-13T01:02:18;15.73;;;8.97;;
5077;SDS011;2557;51.390;7.494;2023-10-13T01:05:06;12.90;;;9.00;;
5077;SDS011;2557;51.390;7.494;2023-10-13T01:07:36;13.13;;;10.20;;
5077;SDS011;2557;51.390;7.494;2023-10-13T01:10:03;10.50;;;9.40;;
5077;SDS011;2557;51.390;7.494;2023-10-13T01:12:29;11.33;;;8.00;;
5077;SDS011;2557;51.390;7.494;2023-10-13T01:14:56;12.07;;;8.40;;
5077;SDS011;2557;51.390;7.494;2023-10-13T01:17:22;9.20;;;8.30;;
5077;SDS011;2557;51.390;7.494;2023-10-13T01:19:49;9.63;;;8.73;;
5077;SDS011;2557;51.390;7.494;2023-10-13T01:22:15;12.27;;;9.40;;
5077;SDS011;2557;51.390;7.494;2023-10-13T01:24:41;8.53;;;7.67;;
5077;SDS011;2557;51.390;7.494;2023-10-13T01:27:07;11.97;;;9.00;;
5077;SDS011;2557;51.390;7.494;2023-10-13T01:29:46;10.10;;;8.27;;
5077;SDS011;2557;51.390;7.494;2023-10-13T01:32:13;13.00;;;9.47;;
5077;SDS011;2557;51.390;7.494;2023-10-13T01:34:39;10.43;;;8.57;;
5077;SDS011;2557;51.390;7.494;2023-10-13T01:37:10;13.50;;;9.40;;
5077;SDS011;2557;51.390;7.494;2023-10-13T01:39:36;13.77;;;8.40;;
5077;SDS011;2557;51.390;7.494;2023-10-13T01:42:03;9.37;;;8.47;;
5077;SDS011;2557;51.390;7.494;2023-10-13T01:44:31;9.13;;;8.23;;
5077;SDS011;2557;51.390;7.494;2023-10-13T01:46:57;11.37;;;8.80;;
5077;SDS011;2557;51.390;7.494;2023-10-13T01:49:31;11.90;;;8.70;;
5077;SDS011;2557;51.390;7.494;2023-10-13T01:52:06;10.33;;;8.60;;
5077;SDS011;2557;51.390;7.494;2023-10-13T01:54:36;9.77;;;8.70;;
5077;SDS011;2557;51.390;7.494;2023-10-13T01:57:05;10.30;;;7.70;;
5077;SDS011;2557;51.390;7.494;2023-10-13T01:59:31;12.20;;;8.97;;
5077;SDS011;2557;51.390;7.494;2023-10-13T02:01:58;9.53;;;8.13;;
5077;SDS011;2557;51.390;7.494;2023-10-13T02:04:26;10.50;;;7.90;;
5077;SDS011;2557;51.390;7.494;2023-10-13T02:06:53;9.77;;;8.30;;
5077;SDS011;2557;51.390;7.494;2023-10-13T02:09:21;11.80;;;9.13;;
5077;SDS011;2557;51.390;7.494;2023-10-13T02:11:54;10.97;;;8.87;;
5077;SDS011;2557;51.390;7.494;2023-10-13T02:14:21;12.73;;;9.30;;
5077;SDS011;2557;51.390;7.494;2023-10-13T02:16:50;10.27;;;8.27;;
5077;SDS011;2557;51.390;7.494;2023-10-13T02:19:20;10.97;;;9.33;;
5077;SDS011;2557;51.390;7.494;2023-10-13T02:21:46;12.80;;;9.00;;
5077;SDS011;2557;51.390;7.494;2023-10-13T02:24:23;16.60;;;8.87;;
5077;SDS011;2557;51.390;7.494;2023-10-13T02:26:54;16.00;;;9.17;;
5077;SDS011;2557;51.390;7.494;2023-10-13T02:29:20;10.17;;;8.57;;
5077;SDS011;2557;51.390;7.494;2023-10-13T02:31:46;11.93;;;8.40;;
5077;SDS011;2557;51.390;7.494;2023-10-13T02:34:19;19.07;;;9.30;;
5077;SDS011;2557;51.390;7.494;2023-10-13T02:36:47;14.37;;;8.93;;
5077;SDS011;2557;51.390;7.494;2023-10-13T02:39:14;11.33;;;8.40;;
5077;SDS011;2557;51.390;7.494;2023-10-13T02:41:51;12.70;;;8.43;;
5077;SDS011;2557;51.390;7.494;2023-10-13T02:44:18;9.80;;;8.80;;
5077;SDS011;2557;51.390;7.494;2023-10-13T02:46:56;11.90;;;9.47;;
5077;SDS011;2557;51.390;7.494;2023-10-13T02:49:26;15.70;;;8.60;;
5077;SDS011;2557;51.390;7.494;2023-10-13T02:51:52;10.30;;;8.30;;
5077;SDS011;2557;51.390;7.494;2023-10-13T02:54:20;13.40;;;8.87;;
5077;SDS011;2557;51.390;7.494;2023-10-13T02:56:46;14.97;;;9.10;;
5077;SDS011;2557;51.390;7.494;2023-10-13T02:59:22;11.73;;;8.60;;
5077;SDS011;2557;51.390;7.494;2023-10-13T03:01:59;10.80;;;8.63;;
5077;SDS011;2557;51.390;7.494;2023-10-13T03:04:26;8.90;;;8.00;;
5077;SDS011;2557;51.390;7.494;2023-10-13T03:06:52;12.83;;;8.77;;
5077;SDS011;2557;51.390;7.494;2023-10-13T03:09:18;15.73;;;7.70;;
5077;SDS011;2557;51.390;7.494;2023-10-13T03:11:47;13.67;;;8.53;;
5077;SDS011;2557;51.390;7.494;2023-10-13T03:14:23;9.87;;;7.97;;
5077;SDS011;2557;51.390;7.494;2023-10-13T03:16:53;10.80;;;8.03;;
5077;SDS011;2557;51.390;7.494;2023-10-13T03:19:19;10.17;;;8.20;;
5077;SDS011;2557;51.390;7.494;2023-10-13T03:21:46;12.40;;;8.13;;
5077;SDS011;2557;51.390;7.494;2023-10-13T03:24:20;10.33;;;8.40;;
5077;SDS011;2557;51.390;7.494;2023-10-13T03:26:58;10.70;;;7.73;;
5077;SDS011;2557;51.390;7.494;2023-10-13T03:29:33;11.50;;;9.20;;
5077;SDS011;2557;51.390;7.494;2023-10-13T03:31:59;15.07;;;9.83;;
5077;SDS011;2557;51.390;7.494;2023-10-13T03:34:36;15.23;;;10.00;;
5077;SDS011;2557;51.390;7.494;2023-10-13T03:37:06;13.37;;;9.37;;
5077;SDS011;2557;51.390;7.494;2023-10-13T03:39:43;13.10;;;9.83;;
5077;SDS011;2557;51.390;7.494;2023-10-13T03:42:10;14.97;;;9.00;;
5077;SDS011;2557;51.390;7.494;2023-10-13T03:44:46;11.63;;;10.43;;
5077;SDS011;2557;51.390;7.494;2023-10-13T03:47:13;12.70;;;10.10;;
5077;SDS011;2557;51.390;7.494;2023-10-13T03:49:52;14.67;;;9.27;;
5077;SDS011;2557;51.390;7.494;2023-10-13T03:52:38;10.53;;;9.40;;
5077;SDS011;2557;51.390;7.494;2023-10-13T03:55:04;13.00;;;9.40;;
5077;SDS011;2557;51.390;7.494;2023-10-13T03:57:31;10.43;;;8.87;;
5077;SDS011;2557;51.390;7.494;2023-10-13T04:00:03;13.10;;;9.70;;
5077;SDS011;2557;51.390;7.494;2023-10-13T04:02:44;13.53;;;9.87;;
5077;SDS011;2557;51.390;7.494;2023-10-13T04:05:17;13.80;;;9.30;;
5077;SDS011;2557;51.390;7.494;2023-10-13T04:08:03;13.30;;;9.47;;
5077;SDS011;2557;51.390;7.494;2023-10-13T04:10:48;12.43;;;9.70;;
5077;SDS011;2557;51.390;7.494;2023-10-13T04:13:17;12.10;;;8.70;;
5077;SDS011;2557;51.390;7.494;2023-10-13T04:16:03;15.13;;;9.07;;
5077;SDS011;2557;51.390;7.494;2023-10-13T04:18:49;18.33;;;9.70;;
5077;SDS011;2557;51.390;7.494;2023-10-13T04:21:24;13.43;;;9.30;;
5077;SDS011;2557;51.390;7.494;2023-10-13T04:24:21;13.43;;;10.50;;
5077;SDS011;2557;51.390;7.494;2023-10-13T04:26:50;14.83;;;8.57;;
5077;SDS011;2557;51.390;7.494;2023-10-13T04:29:35;12.53;;;9.33;;
5077;SDS011;2557;51.390;7.494;2023-10-13T04:32:22;13.33;;;9.60;;
5077;SDS011;2557;51.390;7.494;2023-10-13T04:34:55;14.40;;;10.60;;
5077;SDS011;2557;51.390;7.494;2023-10-13T04:37:33;17.63;;;10.23;;
5077;SDS011;2557;51.390;7.494;2023-10-13T04:40:15;12.00;;;10.70;;
5077;SDS011;2557;51.390;7.494;2023-10-13T04:42:44;14.57;;;10.63;;
5077;SDS011;2557;51.390;7.494;2023-10-13T04:45:21;16.33;;;10.90;;
5077;SDS011;2557;51.390;7.494;2023-10-13T04:47:56;13.43;;;9.57;;
5077;SDS011;2557;51.390;7.494;2023-10-13T04:50:38;13.90;;;10.10;;
5077;SDS011;2557;51.390;7.494;2023-10-13T04:53:10;13.40;;;9.70;;
5077;SDS011;2557;51.390;7.494;2023-10-13T04:55:53;14.57;;;9.57;;
5077;SDS011;2557;51.390;7.494;2023-10-13T04:58:28;14.27;;;10.13;;
5077;SDS011;2557;51.390;7.494;2023-10-13T05:01:00;12.57;;;9.20;;
5077;SDS011;2557;51.390;7.494;2023-10-13T05:03:45;17.20;;;9.17;;
5077;SDS011;2557;51.390;7.494;2023-10-13T05:06:30;13.70;;;9.80;;
5077;SDS011;2557;51.390;7.494;2023-10-13T05:09:12;16.43;;;9.33;;
5077;SDS011;2557;51.390;7.494;2023-10-13T05:11:57;9.93;;;9.00;;
5077;SDS011;2557;51.390;7.494;2023-10-13T05:14:42;19.63;;;10.13;;
5077;SDS011;2557;51.390;7.494;2023-10-13T05:17:26;11.80;;;8.80;;
5077;SDS011;2557;51.390;7.494;2023-10-13T05:20:11;16.57;;;8.60;;
5077;SDS011;2557;51.390;7.494;2023-10-13T05:22:56;13.37;;;9.13;;
5077;SDS011;2557;51.390;7.494;2023-10-13T05:25:40;18.33;;;9.57;;
5077;SDS011;2557;51.390;7.494;2023-10-13T05:28:25;13.27;;;8.37;;
5077;SDS011;2557;51.390;7.494;2023-10-13T05:31:09;13.97;;;9.60;;
5077;SDS011;2557;51.390;7.494;2023-10-13T05:33:54;14.93;;;9.00;;
5077;SDS011;2557;51.390;7.494;2023-10-13T05:36:39;14.23;;;8.50;;
5077;SDS011;2557;51.390;7.494;2023-10-13T05:39:23;10.67;;;8.30;;
5077;SDS011;2557;51.390;7.494;2023-10-13T05:42:28;11.87;;;9.00;;
5077;SDS011;2557;51.390;7.494;2023-10-13T05:45:12;15.97;;;8.73;;
5077;SDS011;2557;51.390;7.494;2023-10-13T05:47:41;10.73;;;8.23;;
5077;SDS011;2557;51.390;7.494;2023-10-13T05:50:07;11.43;;;8.00;;
5077;SDS011;2557;51.390;7.494;2023-10-13T05:52:46;19.30;;;9.10;;
5077;SDS011;2557;51.390;7.494;2023-10-13T05:55:27;8.77;;;7.43;;
5077;SDS011;2557;51.390;7.494;2023-10-13T05:58:12;12.20;;;7.30;;
5077;SDS011;2557;51.390;7.494;2023-10-13T06:00:58;14.17;;;8.40;;
5077;SDS011;2557;51.390;7.494;2023-10-13T06:03:43;10.33;;;7.50;;
5077;SDS011;2557;51.390;7.494;2023-10-13T06:06:27;11.63;;;9.10;;
5077;SDS011;2557;51.390;7.494;2023-10-13T06:09:12;13.07;;;8.67;;
5077;SDS011;2557;51.390;7.494;2023-10-13T06:12:16;10.20;;;7.10;;
5077;SDS011;2557;51.390;7.494;2023-10-13T06:15:01;14.50;;;7.97;;
5077;SDS011;2557;51.390;7.494;2023-10-13T06:17:59;13.73;;;7.90;;
5077;SDS011;2557;51.390;7.494;2023-10-13T06:20:44;9.50;;;6.47;;
5077;SDS011;2557;51.390;7.494;2023-10-13T06:23:29;13.70;;;7.43;;
5077;SDS011;2557;51.390;7.494;2023-10-13T06:26:13;7.80;;;6.57;;
5077;SDS011;2557;51.390;7.494;2023-10-13T06:28:58;10.33;;;6.50;;
5077;SDS011;2557;51.390;7.494;2023-10-13T06:31:24;13.47;;;7.60;;
5077;SDS011;2557;51.390;7.494;2023-10-13T06:33:50;11.90;;;7.10;;
5077;SDS011;2557;51.390;7.494;2023-10-13T06:36:16;7.70;;;6.90;;
5077;SDS011;2557;51.390;7.494;2023-10-13T06:38:43;11.10;;;7.00;;
5077;SDS011;2557;51.390;7.494;2023-10-13T06:41:09;10.43;;;7.03;;
5077;SDS011;2557;51.390;7.494;2023-10-13T06:43:44;9.90;;;6.20;;
5077;SDS011;2557;51.390;7.494;2023-10-13T06:46:11;6.00;;;5.30;;
5077;SDS011;2557;51.390;7.494;2023-10-13T06:48:48;9.40;;;5.70;;
5077;SDS011;2557;51.390;7.494;2023-10-13T06:51:18;7.20;;;4.87;;
5077;SDS011;2557;51.390;7.494;2023-10-13T06:53:46;6.67;;;4.93;;
5077;SDS011;2557;51.390;7.494;2023-10-13T06:56:16;5.20;;;4.73;;
5077;SDS011;2557;51.390;7.494;2023-10-13T06:58:53;7.50;;;5.47;;
5077;SDS011;2557;51.390;7.494;2023-10-13T07:01:27;7.17;;;6.00;;
5077;SDS011;2557;51.390;7.494;2023-10-13T07:03:53;13.00;;;6.40;;
5077;SDS011;2557;51.390;7.494;2023-10-13T07:06:25;8.30;;;7.00;;
5077;SDS011;2557;51.390;7.494;2023-10-13T07:08:51;7.20;;;6.60;;
5077;SDS011;2557;51.390;7.494;2023-10-13T07:11:18;8.00;;;6.70;;
5077;SDS011;2557;51.390;7.494;2023-10-13T07:13:58;12.53;;;7.20;;
5077;SDS011;2557;51.390;7.494;2023-10-13T07:16:24;10.07;;;7.87;;
5077;SDS011;2557;51.390;7.494;2023-10-13T07:19:00;11.27;;;8.63;;
5077;SDS011;2557;51.390;7.494;2023-10-13T07:21:30;13.43;;;9.13;;
5077;SDS011;2557;51.390;7.494;2023-10-13T07:23:57;18.70;;;8.97;;
5077;SDS011;2557;51.390;7.494;2023-10-13T07:26:33;9.60;;;8.30;;
5077;SDS011;2557;51.390;7.494;2023-10-13T07:28:59;11.50;;;8.30;;
5077;SDS011;2557;51.390;7.494;2023-10-13T07:31:25;16.50;;;9.13;;
5077;SDS011;2557;51.390;7.494;2023-10-13T07:33:52;11.83;;;8.87;;
5077;SDS011;2557;51.390;7.494;2023-10-13T07:36:29;16.07;;;9.23;;
5077;SDS011;2557;51.390;7.494;2023-10-13T07:39:04;16.83;;;8.43;;
5077;SDS011;2557;51.390;7.494;2023-10-13T07:41:49;15.13;;;8.13;;
5077;SDS011;2557;51.390;7.494;2023-10-13T07:44:34;12.70;;;8.50;;
5077;SDS011;2557;51.390;7.494;2023-10-13T07:47:02;13.80;;;8.23;;
5077;SDS011;2557;51.390;7.494;2023-10-13T07:49:33;8.90;;;7.50;;
5077;SDS011;2557;51.390;7.494;2023-10-13T07:52:01;11.17;;;8.07;;
5077;SDS011;2557;51.390;7.494;2023-10-13T07:54:51;13.43;;;7.53;;
5077;SDS011;2557;51.390;7.494;2023-10-13T07:57:36;13.30;;;7.50;;
5077;SDS011;2557;51.390;7.494;2023-10-13T08:00:18;19.60;;;7.60;;
5077;SDS011;2557;51.390;7.494;2023-10-13T08:03:02;19.63;;;7.80;;
5077;SDS011;2557;51.390;7.494;2023-10-13T08:05:52;15.03;;;8.40;;
5077;SDS011;2557;51.390;7.494;2023-10-13T08:08:31;16.43;;;7.20;;
5077;SDS011;2557;51.390;7.494;2023-10-13T08:11:03;13.93;;;8.00;;
5077;SDS011;2557;51.390;7.494;2023-10-13T08:13:48;14.23;;;6.87;;
5077;SDS011;2557;51.390;7.494;2023-10-13T08:16:19;16.73;;;8.17;;
5077;SDS011;2557;51.390;7.494;2023-10-13T08:18:51;16.83;;;8.30;;
5077;SDS011;2557;51.390;7.494;2023-10-13T08:21:18;17.10;;;8.20;;
5077;SDS011;2557;51.390;7.494;2023-10-13T08:23:48;16.53;;;8.53;;
5077;SDS011;2557;51.390;7.494;2023-10-13T08:26:24;12.57;;;7.17;;
5077;SDS011;2557;51.390;7.494;2023-10-13T08:29:02;13.17;;;7.33;;
5077;SDS011;2557;51.390;7.494;2023-10-13T08:31:44;15.10;;;7.50;;
5077;SDS011;2557;51.390;7.494;2023-10-13T08:34:30;16.60;;;7.73;;
5077;SDS011;2557;51.390;7.494;2023-10-13T08:37:17;14.50;;;7.57;;
5077;SDS011;2557;51.390;7.494;2023-10-13T08:39:49;16.87;;;8.57;;
5077;SDS011;2557;51.390;7.494;2023-10-13T08:42:34;19.87;;;7.83;;
5077;SDS011;2557;51.390;7.494;2023-10-13T08:45:09;13.80;;;7.30;;
5077;SDS011;2557;51.390;7.494;2023-10-13T08:47:51;18.87;;;9.07;;
5077;SDS011;2557;51.390;7.494;2023-10-13T08:50:37;15.80;;;8.00;;
5077;SDS011;2557;51.390;7.494;2023-10-13T08:53:19;11.57;;;6.53;;
5077;SDS011;2557;51.390;7.494;2023-10-13T08:56:03;16.47;;;7.53;;
5077;SDS011;2557;51.390;7.494;2023-10-13T08:58:29;13.93;;;6.80;;
5077;SDS011;2557;51.390;7.494;2023-10-13T09:01:14;11.73;;;6.87;;
5077;SDS011;2557;51.390;7.494;2023-10-13T09:04:09;15.33;;;7.10;;
5077;SDS011;2557;51.390;7.494;2023-10-13T09:06:49;14.00;;;6.60;;
5077;SDS011;2557;51.390;7.494;2023-10-13T09:12:26;15.10;;;6.43;;
5077;SDS011;2557;51.390;7.494;2023-10-13T09:14:58;14.00;;;6.50;;
5077;SDS011;2557;51.390;7.494;2023-10-13T09:17:42;14.67;;;6.23;;
5077;SDS011;2557;51.390;7.494;2023-10-13T09:20:38;10.17;;;5.87;;
5077;SDS011;2557;51.390;7.494;2023-10-13T09:23:11;13.37;;;7.10;;
5077;SDS011;2557;51.390;7.494;2023-10-13T09:25:38;16.80;;;6.87;;
5077;SDS011;2557;51.390;7.494;2023-10-13T09:28:19;12.20;;;6.30;;
5077;SDS011;2557;51.390;7.494;2023-10-13T09:30:53;18.13;;;6.43;;
5077;SDS011;2557;51.390;7.494;2023-10-13T09:33:24;9.20;;;5.63;;
5077;SDS011;2557;51.390;7.494;2023-10-13T09:36:05;14.30;;;7.00;;
5077;SDS011;2557;51.390;7.494;2023-10-13T09:38:32;12.23;;;6.10;;
5077;SDS011;2557;51.390;7.494;2023-10-13T09:40:58;15.90;;;6.60;;
5077;SDS011;2557;51.390;7.494;2023-10-13T09:43:43;14.40;;;6.27;;
5077;SDS011;2557;51.390;7.494;2023-10-13T09:46:09;12.10;;;6.13;;
5077;SDS011;2557;51.390;7.494;2023-10-13T09:48:45;9.90;;;5.70;;
5077;SDS011;2557;51.390;7.494;2023-10-13T09:51:18;17.13;;;7.10;;
5077;SDS011;2557;51.390;7.494;2023-10-13T09:56:27;13.47;;;6.50;;
5077;SDS011;2557;51.390;7.494;2023-10-13T09:59:10;9.00;;;5.77;;
5077;SDS011;2557;51.390;7.494;2023-10-13T10:01:41;9.83;;;5.73;;
5077;SDS011;2557;51.390;7.494;2023-10-13T10:04:22;8.27;;;6.13;;
5077;SDS011;2557;51.390;7.494;2023-10-13T10:09:17;15.50;;;6.00;;
5077;SDS011;2557;51.390;7.494;2023-10-13T10:17:11;12.27;;;6.20;;
5077;SDS011;2557;51.390;7.494;2023-10-13T10:19:50;12.80;;;6.10;;
5077;SDS011;2557;51.390;7.494;2023-10-13T10:22:29;10.93;;;6.47;;
5077;SDS011;2557;51.390;7.494;2023-10-13T10:24:58;9.50;;;6.63;;
5077;SDS011;2557;51.390;7.494;2023-10-13T10:27:28;9.70;;;6.97;;
5077;SDS011;2557;51.390;7.494;2023-10-13T10:29:58;11.23;;;7.00;;
5077;SDS011;2557;51.390;7.494;2023-10-13T10:32:37;15.93;;;7.30;;
5077;SDS011;2557;51.390;7.494;2023-10-13T10:35:07;8.33;;;6.40;;
5077;SDS011;2557;51.390;7.494;2023-10-13T10:37:40;11.23;;;7.03;;
5077;SDS011;2557;51.390;7.494;2023-10-13T10:40:12;14.00;;;7.07;;
5077;SDS011;2557;51.390;7.494;2023-10-13T10:42:56;14.27;;;6.97;;
5077;SDS011;2557;51.390;7.494;2023-10-13T10:45:26;8.63;;;5.90;;
5077;SDS011;2557;51.390;7.494;2023-10-13T10:47:57;32.70;;;9.97;;
5077;SDS011;2557;51.390;7.494;2023-10-13T10:50:26;8.30;;;6.70;;
5077;SDS011;2557;51.390;7.494;2023-10-13T10:53:00;14.90;;;8.50;;
5077;SDS011;2557;51.390;7.494;2023-10-13T10:55:26;11.73;;;7.13;;
5077;SDS011;2557;51.390;7.494;2023-10-13T10:58:00;10.20;;;6.77;;
5077;SDS011;2557;51.390;7.494;2023-10-13T11:00:26;13.77;;;7.10;;
5077;SDS011;2557;51.390;7.494;2023-10-13T11:03:06;11.83;;;6.87;;
5077;SDS011;2557;51.390;7.494;2023-10-13T11:05:42;13.97;;;6.53;;
5077;SDS011;2557;51.390;7.494;2023-10-13T11:08:08;12.27;;;7.10;;
5077;SDS011;2557;51.390;7.494;2023-10-13T11:10:50;12.37;;;7.20;;
5077;SDS011;2557;51.390;7.494;2023-10-13T11:13:16;14.00;;;7.50;;
5077;SDS011;2557;51.390;7.494;2023-10-13T11:15:47;7.93;;;7.07;;
5077;SDS011;2557;51.390;7.494;2023-10-13T11:18:13;22.10;;;8.17;;
5077;SDS011;2557;51.390;7.494;2023-10-13T11:20:46;10.33;;;6.60;;
5077;SDS011;2557;51.390;7.494;2023-10-13T11:23:12;16.40;;;7.90;;
5077;SDS011;2557;51.390;7.494;2023-10-13T11:25:39;17.87;;;7.50;;
5077;SDS011;2557;51.390;7.494;2023-10-13T11:28:12;10.53;;;7.07;;
5077;SDS011;2557;51.390;7.494;2023-10-13T11:30:59;12.00;;;6.57;;
5077;SDS011;2557;51.390;7.494;2023-10-13T11:33:25;13.33;;;6.63;;
5077;SDS011;2557;51.390;7.494;2023-10-13T11:35:55;12.87;;;7.20;;
5077;SDS011;2557;51.390;7.494;2023-10-13T11:38:34;15.43;;;7.00;;
5077;SDS011;2557;51.390;7.494;2023-10-13T11:41:06;17.37;;;8.80;;
5077;SDS011;2557;51.390;7.494;2023-10-13T11:44:00;10.23;;;6.93;;
5077;SDS011;2557;51.390;7.494;2023-10-13T11:46:38;11.30;;;7.27;;
5077;SDS011;2557;51.390;7.494;2023-10-13T11:49:14;14.93;;;7.90;;
5077;SDS011;2557;51.390;7.494;2023-10-13T11:51:44;13.20;;;6.70;;
5077;SDS011;2557;51.390;7.494;2023-10-13T11:54:13;15.93;;;7.17;;
5077;SDS011;2557;51.390;7.494;2023-10-13T11:56:40;16.37;;;8.17;;
5077;SDS011;2557;51.390;7.494;2023-10-13T11:59:06;13.10;;;8.13;;
5077;SDS011;2557;51.390;7.494;2023-10-13T12:01:41;13.40;;;7.13;;
5077;SDS011;2557;51.390;7.494;2023-10-13T12:04:27;11.73;;;8.07;;
5077;SDS011;2557;51.390;7.494;2023-10-13T12:06:57;13.93;;;7.17;;
5077;SDS011;2557;51.390;7.494;2023-10-13T12:09:42;17.47;;;8.40;;
5077;SDS011;2557;51.390;7.494;2023-10-13T12:12:24;15.60;;;7.90;;
5077;SDS011;2557;51.390;7.494;2023-10-13T12:14:50;16.53;;;7.90;;
5077;SDS011;2557;51.390;7.494;2023-10-13T12:17:28;17.10;;;8.93;;
5077;SDS011;2557;51.390;7.494;2023-10-13T12:20:04;12.63;;;8.17;;
5077;SDS011;2557;51.390;7.494;2023-10-13T12:22:31;16.13;;;8.00;;
5077;SDS011;2557;51.390;7.494;2023-10-13T12:25:04;14.13;;;7.80;;
5077;SDS011;2557;51.390;7.494;2023-10-13T12:27:43;18.30;;;8.73;;
5077;SDS011;2557;51.390;7.494;2023-10-13T12:30:13;10.13;;;7.13;;
5077;SDS011;2557;51.390;7.494;2023-10-13T12:32:47;18.23;;;9.00;;
5077;SDS011;2557;51.390;7.494;2023-10-13T12:35:23;13.20;;;7.90;;
5077;SDS011;2557;51.390;7.494;2023-10-13T12:38:00;16.60;;;7.57;;
5077;SDS011;2557;51.390;7.494;2023-10-13T12:40:41;18.20;;;8.30;;
5077;SDS011;2557;51.390;7.494;2023-10-13T12:43:26;13.40;;;7.47;;
5077;SDS011;2557;51.390;7.494;2023-10-13T12:46:10;19.20;;;9.63;;
5077;SDS011;2557;51.390;7.494;2023-10-13T12:48:55;12.23;;;8.37;;
5077;SDS011;2557;51.390;7.494;2023-10-13T12:51:29;11.10;;;7.63;;
5077;SDS011;2557;51.390;7.494;2023-10-13T12:53:58;10.07;;;7.10;;
5077;SDS011;2557;51.390;7.494;2023-10-13T12:56:39;14.87;;;8.10;;
5077;SDS011;2557;51.390;7.494;2023-10-13T12:59:09;13.43;;;8.10;;
5077;SDS011;2557;51.390;7.494;2023-10-13T13:01:38;14.90;;;7.10;;
5077;SDS011;2557;51.390;7.494;2023-10-13T13:04:07;17.13;;;7.63;;
5077;SDS011;2557;51.390;7.494;2023-10-13T13:06:37;14.00;;;8.10;;
5077;SDS011;2557;51.390;7.494;2023-10-13T13:09:05;13.83;;;7.30;;
5077;SDS011;2557;51.390;7.494;2023-10-13T13:11:34;14.83;;;7.43;;
5077;SDS011;2557;51.390;7.494;2023-10-13T13:14:04;13.37;;;7.87;;
5077;SDS011;2557;51.390;7.494;2023-10-13T13:16:32;16.30;;;7.23;;
5077;SDS011;2557;51.390;7.494;2023-10-13T13:18:58;13.10;;;7.67;;
5077;SDS011;2557;51.390;7.494;2023-10-13T13:21:28;22.93;;;7.93;;
5077;SDS011;2557;51.390;7.494;2023-10-13T13:23:54;14.60;;;7.37;;
5077;SDS011;2557;51.390;7.494;2023-10-13T13:26:23;14.17;;;6.80;;
5077;SDS011;2557;51.390;7.494;2023-10-13T13:28:49;16.30;;;7.70;;
5077;SDS011;2557;51.390;7.494;2023-10-13T13:31:19;14.20;;;6.90;;
5077;SDS011;2557;51.390;7.494;2023-10-13T13:33:51;14.10;;;7.30;;
5077;SDS011;2557;51.390;7.494;2023-10-13T13:36:18;15.33;;;7.30;;
5077;SDS011;2557;51.390;7.494;2023-10-13T13:38:44;15.33;;;7.77;;
5077;SDS011;2557;51.390;7.494;2023-10-13T13:41:15;10.23;;;6.50;;
5077;SDS011;2557;51.390;7.494;2023-10-13T13:43:42;12.90;;;7.20;;
5077;SDS011;2557;51.390;7.494;2023-10-13T13:46:17;15.13;;;6.80;;
5077;SDS011;2557;51.390;7.494;2023-10-13T13:48:43;15.63;;;6.70;;
5077;SDS011;2557;51.390;7.494;2023-10-13T13:51:12;14.17;;;6.17;;
5077;SDS011;2557;51.390;7.494;2023-10-13T13:53:44;15.13;;;7.40;;
5077;SDS011;2557;51.390;7.494;2023-10-13T13:56:12;15.63;;;7.20;;
5077;SDS011;2557;51.390;7.494;2023-10-13T13:58:41;14.80;;;7.40;;
5077;SDS011;2557;51.390;7.494;2023-10-13T14:01:07;21.03;;;7.97;;
5077;SDS011;2557;51.390;7.494;2023-10-13T14:03:40;12.73;;;7.20;;
5077;SDS011;2557;51.390;7.494;2023-10-13T14:08:46;18.77;;;7.20;;
5077;SDS011;2557;51.390;7.494;2023-10-13T14:11:19;13.90;;;7.93;;
5077;SDS011;2557;51.390;7.494;2023-10-13T14:14:11;13.93;;;7.03;;
5077;SDS011;2557;51.390;7.494;2023-10-13T14:16:38;15.87;;;7.83;;
5077;SDS011;2557;51.390;7.494;2023-10-13T14:19:09;24.63;;;7.27;;
5077;SDS011;2557;51.390;7.494;2023-10-13T14:21:35;13.10;;;7.20;;
5077;SDS011;2557;51.390;7.494;2023-10-13T14:24:01;12.87;;;6.70;;
5077;SDS011;2557;51.390;7.494;2023-10-13T14:26:28;9.87;;;6.37;;
5077;SDS011;2557;51.390;7.494;2023-10-13T14:28:55;18.17;;;7.67;;
5077;SDS011;2557;51.390;7.494;2023-10-13T14:31:31;15.60;;;7.07;;
5077;SDS011;2557;51.390;7.494;2023-10-13T14:33:58;17.80;;;7.63;;
5077;SDS011;2557;51.390;7.494;2023-10-13T14:36:24;16.23;;;8.30;;
5077;SDS011;2557;51.390;7.494;2023-10-13T14:38:53;15.10;;;6.63;;
5077;SDS011;2557;51.390;7.494;2023-10-13T14:41:20;15.00;;;7.67;;
5077;SDS011;2557;51.390;7.494;2023-10-13T14:43:46;15.73;;;6.70;;
5077;SDS011;2557;51.390;7.494;2023-10-13T14:46:15;19.47;;;7.83;;
5077;SDS011;2557;51.390;7.494;2023-10-13T14:48:42;17.23;;;6.50;;
5077;SDS011;2557;51.390;7.494;2023-10-13T14:51:11;20.47;;;8.10;;
5077;SDS011;2557;51.390;7.494;2023-10-13T14:53:46;15.10;;;6.40;;
5077;SDS011;2557;51.390;7.494;2023-10-13T14:56:13;15.60;;;5.87;;
5077;SDS011;2557;51.390;7.494;2023-10-13T14:58:39;14.90;;;7.50;;
5077;SDS011;2557;51.390;7.494;2023-10-13T15:01:15;17.20;;;7.20;;
5077;SDS011;2557;51.390;7.494;2023-10-13T15:03:42;19.90;;;7.57;;
5077;SDS011;2557;51.390;7.494;2023-10-13T15:06:14;16.20;;;8.60;;
5077;SDS011;2557;51.390;7.494;2023-10-13T15:08:42;9.53;;;6.07;;
5077;SDS011;2557;51.390;7.494;2023-10-13T15:11:10;11.43;;;6.37;;
5077;SDS011;2557;51.390;7.494;2023-10-13T15:13:37;14.63;;;6.63;;
5077;SDS011;2557;51.390;7.494;2023-10-13T15:16:12;13.90;;;7.23;;
5077;SDS011;2557;51.390;7.494;2023-10-13T15:18:39;20.70;;;7.50;;
5077;SDS011;2557;51.390;7.494;2023-10-13T15:21:05;21.50;;;6.50;;
5077;SDS011;2557;51.390;7.494;2023-10-13T15:23:33;19.20;;;6.70;;
5077;SDS011;2557;51.390;7.494;2023-10-13T15:26:07;13.23;;;6.50;;
5077;SDS011;2557;51.390;7.494;2023-10-13T15:28:34;10.63;;;6.43;;
5077;SDS011;2557;51.390;7.494;2023-10-13T15:31:02;16.33;;;8.10;;
5077;SDS011;2557;51.390;7.494;2023-10-13T15:33:50;11.33;;;7.03;;
5077;SDS011;2557;51.390;7.494;2023-10-13T15:36:20;12.73;;;6.47;;
5077;SDS011;2557;51.390;7.494;2023-10-13T15:38:48;13.73;;;6.23;;
5077;SDS011;2557;51.390;7.494;2023-10-13T15:41:20;13.83;;;6.57;;
5077;SDS011;2557;51.390;7.494;2023-10-13T15:43:46;17.00;;;7.03;;
5077;SDS011;2557;51.390;7.494;2023-10-13T15:46:23;10.27;;;6.53;;
5077;SDS011;2557;51.390;7.494;2023-10-13T15:48:50;14.07;;;6.73;;
5077;SDS011;2557;51.390;7.494;2023-10-13T15:51:16;16.97;;;8.20;;
5077;SDS011;2557;51.390;7.494;2023-10-13T15:53:43;19.23;;;6.80;;
5077;SDS011;2557;51.390;7.494;2023-10-13T15:56:10;16.70;;;6.97;;
5077;SDS011;2557;51.390;7.494;2023-10-13T15:58:45;18.80;;;7.80;;